Terminal Aerodrome Forecast
Issued by NWS Wilmington, NC

Home | Current Version | Previous Version | Text Only | Print | Product List | Glossary On
Versions: 1 2 3 4 5 6 7 8 9 10 11 12 13 14 15 16 17 18
189
FTUS42 KILM 072320
TAFILM
TAF
KILM 072320Z 0800/0824 35021G36KT 6SM -RA BR SCT015 BKN060
     FM080200 32020G30KT P6SM VCSH BKN070
     FM080700 31010KT P6SM SCT050
     FM081300 28007KT P6SM FEW250
     FM082000 22012G19KT P6SM BKN250
     FM082300 23013G20KT 6SM -SHRASN BKN050=

USA.gov is the U.S. government's official web portal to all federal, state and local government web resources and services.